sensor_id;sensor_type;location;lat;lon;timestamp;P1;durP1;ratioP1;P2;durP2;ratioP2
8885;SDS011;4479;51.162;13.906;2024-02-26T00:05:59;7.17;;;5.60;;
8885;SDS011;4479;51.162;13.906;2024-02-26T00:16:03;9.97;;;6.60;;
8885;SDS011;4479;51.162;13.906;2024-02-26T00:26:06;8.37;;;6.60;;
8885;SDS011;4479;51.162;13.906;2024-02-26T00:36:12;8.40;;;6.13;;
8885;SDS011;4479;51.162;13.906;2024-02-26T00:46:14;9.23;;;6.47;;
8885;SDS011;4479;51.162;13.906;2024-02-26T00:56:17;7.50;;;5.77;;
8885;SDS011;4479;51.162;13.906;2024-02-26T01:06:19;8.97;;;6.17;;
8885;SDS011;4479;51.162;13.906;2024-02-26T01:16:23;9.63;;;6.43;;
8885;SDS011;4479;51.162;13.906;2024-02-26T01:26:25;10.73;;;6.53;;
8885;SDS011;4479;51.162;13.906;2024-02-26T01:36:29;9.30;;;5.97;;
8885;SDS011;4479;51.162;13.906;2024-02-26T01:46:32;10.93;;;6.70;;
8885;SDS011;4479;51.162;13.906;2024-02-26T01:56:38;8.60;;;5.77;;
8885;SDS011;4479;51.162;13.906;2024-02-26T02:06:42;8.90;;;6.20;;
8885;SDS011;4479;51.162;13.906;2024-02-26T02:16:48;7.73;;;5.90;;
8885;SDS011;4479;51.162;13.906;2024-02-26T02:26:51;8.13;;;5.93;;
8885;SDS011;4479;51.162;13.906;2024-02-26T02:36:53;7.07;;;5.10;;
8885;SDS011;4479;51.162;13.906;2024-02-26T02:46:57;8.17;;;5.50;;
8885;SDS011;4479;51.162;13.906;2024-02-26T02:56:59;7.63;;;5.27;;
8885;SDS011;4479;51.162;13.906;2024-02-26T03:07:03;7.93;;;5.63;;
8885;SDS011;4479;51.162;13.906;2024-02-26T03:17:05;7.67;;;5.33;;
8885;SDS011;4479;51.162;13.906;2024-02-26T03:27:09;12.10;;;6.43;;
8885;SDS011;4479;51.162;13.906;2024-02-26T03:37:11;9.23;;;5.23;;
8885;SDS011;4479;51.162;13.906;2024-02-26T03:47:15;8.63;;;5.50;;
8885;SDS011;4479;51.162;13.906;2024-02-26T03:57:17;7.13;;;4.97;;
8885;SDS011;4479;51.162;13.906;2024-02-26T04:07:21;8.67;;;4.93;;
8885;SDS011;4479;51.162;13.906;2024-02-26T04:17:23;7.73;;;5.03;;
8885;SDS011;4479;51.162;13.906;2024-02-26T04:27:27;8.13;;;4.87;;
8885;SDS011;4479;51.162;13.906;2024-02-26T04:37:29;6.13;;;4.33;;
8885;SDS011;4479;51.162;13.906;2024-02-26T04:47:33;5.37;;;3.97;;
8885;SDS011;4479;51.162;13.906;2024-02-26T04:57:35;6.10;;;3.87;;
8885;SDS011;4479;51.162;13.906;2024-02-26T05:07:40;6.37;;;3.87;;
8885;SDS011;4479;51.162;13.906;2024-02-26T05:17:43;5.10;;;3.70;;
8885;SDS011;4479;51.162;13.906;2024-02-26T05:27:47;5.37;;;3.40;;
8885;SDS011;4479;51.162;13.906;2024-02-26T05:37:49;5.07;;;3.53;;
8885;SDS011;4479;51.162;13.906;2024-02-26T05:47:54;4.53;;;3.13;;
8885;SDS011;4479;51.162;13.906;2024-02-26T05:57:56;4.40;;;3.30;;
8885;SDS011;4479;51.162;13.906;2024-02-26T06:07:59;5.17;;;3.37;;
8885;SDS011;4479;51.162;13.906;2024-02-26T06:18:02;7.17;;;3.47;;
8885;SDS011;4479;51.162;13.906;2024-02-26T06:28:06;5.33;;;3.33;;
8885;SDS011;4479;51.162;13.906;2024-02-26T06:38:09;7.53;;;4.27;;
8885;SDS011;4479;51.162;13.906;2024-02-26T06:48:14;5.27;;;4.13;;
8885;SDS011;4479;51.162;13.906;2024-02-26T06:58:16;8.20;;;3.87;;
8885;SDS011;4479;51.162;13.906;2024-02-26T07:08:19;9.17;;;5.23;;
8885;SDS011;4479;51.162;13.906;2024-02-26T07:18:21;9.40;;;5.00;;
8885;SDS011;4479;51.162;13.906;2024-02-26T07:28:25;9.90;;;4.90;;
8885;SDS011;4479;51.162;13.906;2024-02-26T07:38:27;7.80;;;4.47;;
8885;SDS011;4479;51.162;13.906;2024-02-26T07:48:31;4.80;;;3.17;;
8885;SDS011;4479;51.162;13.906;2024-02-26T07:58:33;5.17;;;3.20;;
8885;SDS011;4479;51.162;13.906;2024-02-26T08:08:37;5.70;;;3.13;;
8885;SDS011;4479;51.162;13.906;2024-02-26T08:18:39;3.83;;;3.13;;
8885;SDS011;4479;51.162;13.906;2024-02-26T08:28:42;6.57;;;4.17;;
8885;SDS011;4479;51.162;13.906;2024-02-26T08:38:44;8.03;;;5.43;;
8885;SDS011;4479;51.162;13.906;2024-02-26T08:48:48;6.23;;;4.77;;
8885;SDS011;4479;51.162;13.906;2024-02-26T08:58:50;7.90;;;5.17;;
8885;SDS011;4479;51.162;13.906;2024-02-26T09:08:55;8.77;;;5.80;;
8885;SDS011;4479;51.162;13.906;2024-02-26T09:18:56;9.20;;;5.87;;
8885;SDS011;4479;51.162;13.906;2024-02-26T09:29:00;7.73;;;5.80;;
8885;SDS011;4479;51.162;13.906;2024-02-26T09:39:02;8.33;;;5.83;;
8885;SDS011;4479;51.162;13.906;2024-02-26T09:49:06;7.43;;;5.67;;
8885;SDS011;4479;51.162;13.906;2024-02-26T09:59:10;8.73;;;7.10;;
8885;SDS011;4479;51.162;13.906;2024-02-26T10:09:15;9.53;;;7.07;;
8885;SDS011;4479;51.162;13.906;2024-02-26T10:19:25;9.53;;;6.67;;
8885;SDS011;4479;51.162;13.906;2024-02-26T10:29:30;8.83;;;6.20;;
8885;SDS011;4479;51.162;13.906;2024-02-26T10:39:33;8.30;;;6.23;;
8885;SDS011;4479;51.162;13.906;2024-02-26T10:49:44;8.33;;;5.87;;
8885;SDS011;4479;51.162;13.906;2024-02-26T10:59:48;9.33;;;6.00;;
8885;SDS011;4479;51.162;13.906;2024-02-26T11:09:55;6.73;;;6.00;;
8885;SDS011;4479;51.162;13.906;2024-02-26T11:19:59;6.60;;;5.37;;
8885;SDS011;4479;51.162;13.906;2024-02-26T11:30:04;6.33;;;5.37;;
8885;SDS011;4479;51.162;13.906;2024-02-26T11:40:11;7.30;;;5.70;;
8885;SDS011;4479;51.162;13.906;2024-02-26T12:00:40;8.20;;;5.27;;
8885;SDS011;4479;51.162;13.906;2024-02-26T12:10:44;7.10;;;5.83;;
8885;SDS011;4479;51.162;13.906;2024-02-26T12:20:46;7.17;;;5.43;;
8885;SDS011;4479;51.162;13.906;2024-02-26T12:30:58;6.47;;;5.20;;
8885;SDS011;4479;51.162;13.906;2024-02-26T12:41:00;5.23;;;4.40;;
8885;SDS011;4479;51.162;13.906;2024-02-26T12:51:04;4.97;;;4.47;;
8885;SDS011;4479;51.162;13.906;2024-02-26T13:01:07;6.57;;;5.20;;
8885;SDS011;4479;51.162;13.906;2024-02-26T13:11:11;6.80;;;4.77;;
8885;SDS011;4479;51.162;13.906;2024-02-26T13:21:14;5.70;;;4.70;;
8885;SDS011;4479;51.162;13.906;2024-02-26T13:31:18;5.53;;;4.70;;
8885;SDS011;4479;51.162;13.906;2024-02-26T13:41:20;5.07;;;4.50;;
8885;SDS011;4479;51.162;13.906;2024-02-26T13:51:24;5.47;;;4.77;;
8885;SDS011;4479;51.162;13.906;2024-02-26T14:01:26;6.03;;;4.40;;
8885;SDS011;4479;51.162;13.906;2024-02-26T14:11:32;5.07;;;4.33;;
8885;SDS011;4479;51.162;13.906;2024-02-26T14:21:35;6.03;;;4.60;;
8885;SDS011;4479;51.162;13.906;2024-02-26T14:31:38;5.27;;;4.10;;
8885;SDS011;4479;51.162;13.906;2024-02-26T14:41:40;5.93;;;4.57;;
8885;SDS011;4479;51.162;13.906;2024-02-26T14:51:44;5.10;;;4.50;;
8885;SDS011;4479;51.162;13.906;2024-02-26T15:01:46;7.13;;;5.10;;
8885;SDS011;4479;51.162;13.906;2024-02-26T15:11:50;6.47;;;5.33;;
8885;SDS011;4479;51.162;13.906;2024-02-26T15:21:52;6.03;;;5.00;;
8885;SDS011;4479;51.162;13.906;2024-02-26T15:31:56;5.37;;;4.33;;
8885;SDS011;4479;51.162;13.906;2024-02-26T15:41:59;7.10;;;5.40;;
8885;SDS011;4479;51.162;13.906;2024-02-26T15:52:04;7.00;;;5.33;;
8885;SDS011;4479;51.162;13.906;2024-02-26T16:02:07;6.07;;;4.90;;
8885;SDS011;4479;51.162;13.906;2024-02-26T16:12:11;4.70;;;3.90;;
8885;SDS011;4479;51.162;13.906;2024-02-26T16:22:16;6.50;;;4.13;;
8885;SDS011;4479;51.162;13.906;2024-02-26T16:32:20;5.27;;;4.17;;
8885;SDS011;4479;51.162;13.906;2024-02-26T16:42:22;4.57;;;3.47;;
8885;SDS011;4479;51.162;13.906;2024-02-26T16:52:26;7.50;;;4.83;;
8885;SDS011;4479;51.162;13.906;2024-02-26T17:02:29;7.37;;;5.27;;
8885;SDS011;4479;51.162;13.906;2024-02-26T17:12:32;16.10;;;8.47;;
8885;SDS011;4479;51.162;13.906;2024-02-26T17:22:34;10.63;;;7.03;;
8885;SDS011;4479;51.162;13.906;2024-02-26T17:32:38;18.40;;;9.37;;
8885;SDS011;4479;51.162;13.906;2024-02-26T17:42:40;14.47;;;7.07;;
8885;SDS011;4479;51.162;13.906;2024-02-26T17:52:43;14.90;;;8.80;;
8885;SDS011;4479;51.162;13.906;2024-02-26T18:02:45;10.97;;;7.43;;
8885;SDS011;4479;51.162;13.906;2024-02-26T18:12:49;18.33;;;11.30;;
8885;SDS011;4479;51.162;13.906;2024-02-26T18:22:52;11.93;;;7.10;;
8885;SDS011;4479;51.162;13.906;2024-02-26T18:32:56;15.67;;;9.73;;
8885;SDS011;4479;51.162;13.906;2024-02-26T18:42:58;15.00;;;8.73;;
8885;SDS011;4479;51.162;13.906;2024-02-26T18:53:04;9.40;;;6.17;;
8885;SDS011;4479;51.162;13.906;2024-02-26T19:03:06;15.83;;;9.43;;
8885;SDS011;4479;51.162;13.906;2024-02-26T19:13:10;13.70;;;8.33;;
8885;SDS011;4479;51.162;13.906;2024-02-26T19:23:12;12.30;;;7.80;;
8885;SDS011;4479;51.162;13.906;2024-02-26T19:33:16;12.53;;;7.00;;
8885;SDS011;4479;51.162;13.906;2024-02-26T19:43:17;11.07;;;7.47;;
8885;SDS011;4479;51.162;13.906;2024-02-26T19:53:21;11.33;;;7.00;;
8885;SDS011;4479;51.162;13.906;2024-02-26T20:03:23;9.47;;;6.07;;
8885;SDS011;4479;51.162;13.906;2024-02-26T20:13:27;9.20;;;6.50;;
8885;SDS011;4479;51.162;13.906;2024-02-26T20:23:30;11.33;;;6.07;;
8885;SDS011;4479;51.162;13.906;2024-02-26T20:33:33;9.60;;;6.27;;
8885;SDS011;4479;51.162;13.906;2024-02-26T20:43:37;9.77;;;5.63;;
8885;SDS011;4479;51.162;13.906;2024-02-26T20:53:41;8.93;;;4.77;;
8885;SDS011;4479;51.162;13.906;2024-02-26T21:03:44;6.70;;;5.07;;
8885;SDS011;4479;51.162;13.906;2024-02-26T21:13:48;8.93;;;5.30;;
8885;SDS011;4479;51.162;13.906;2024-02-26T21:23:50;10.47;;;6.03;;
8885;SDS011;4479;51.162;13.906;2024-02-26T21:33:54;8.70;;;5.87;;
8885;SDS011;4479;51.162;13.906;2024-02-26T21:43:56;7.83;;;5.80;;
8885;SDS011;4479;51.162;13.906;2024-02-26T21:54:07;10.90;;;6.67;;
8885;SDS011;4479;51.162;13.906;2024-02-26T22:04:09;12.10;;;8.20;;
8885;SDS011;4479;51.162;13.906;2024-02-26T22:14:13;12.40;;;7.97;;
8885;SDS011;4479;51.162;13.906;2024-02-26T22:24:15;13.10;;;8.47;;
8885;SDS011;4479;51.162;13.906;2024-02-26T22:34:19;11.93;;;7.73;;
8885;SDS011;4479;51.162;13.906;2024-02-26T22:44:21;10.53;;;7.67;;
8885;SDS011;4479;51.162;13.906;2024-02-26T22:54:24;12.57;;;7.70;;
8885;SDS011;4479;51.162;13.906;2024-02-26T23:04:27;10.70;;;7.43;;
8885;SDS011;4479;51.162;13.906;2024-02-26T23:14:30;10.87;;;7.00;;
8885;SDS011;4479;51.162;13.906;2024-02-26T23:24:33;9.47;;;6.50;;
8885;SDS011;4479;51.162;13.906;2024-02-26T23:34:38;11.50;;;7.13;;
8885;SDS011;4479;51.162;13.906;2024-02-26T23:44:40;11.13;;;7.80;;
8885;SDS011;4479;51.162;13.906;2024-02-26T23:54:44;10.90;;;7.37;;
